Time;durP1;ratioP1;P1;durP2;ratioP2;P2;SDS_P1;SDS_P2;PMS_P1;PMS_P2;Temp;Humidity;BMP_temperature;BMP_pressure;BME280_temperature;BME280_humidity;BME280_pressure;Samples;Min_cycle;Max_cycle;Signal;HPM_P1;HPM_P2
2023/01/22 00:02:12;;;;;;;21.63;16.27;;;;;;;;;;5059243;28;20446;-73
2023/01/22 00:04:39;;;;;;;22.20;16.97;;;;;;;;;;5056606;28;20480;-74
2023/01/22 00:07:07;;;;;;;20.57;15.93;;;;;;;;;;5051128;28;21114;-74
2023/01/22 00:09:34;;;;;;;22.40;16.90;;;;;;;;;;5051306;28;20565;-74
2023/01/22 00:12:01;;;;;;;22.43;16.00;;;;;;;;;;5056626;28;20552;-73
2023/01/22 00:14:28;;;;;;;21.27;15.83;;;;;;;;;;5061234;28;21252;-75
2023/01/22 00:16:56;;;;;;;22.00;15.97;;;;;;;;;;5058383;28;20442;-73
2023/01/22 00:19:23;;;;;;;22.57;17.07;;;;;;;;;;5061847;28;20472;-73
2023/01/22 00:21:50;;;;;;;23.20;15.87;;;;;;;;;;5061589;28;20455;-74
2023/01/22 00:24:17;;;;;;;23.10;16.10;;;;;;;;;;5053782;28;20844;-74
2023/01/22 00:26:44;;;;;;;20.17;15.30;;;;;;;;;;5050892;28;20455;-75
2023/01/22 00:29:12;;;;;;;22.07;16.97;;;;;;;;;;5050977;28;20500;-72
2023/01/22 00:31:39;;;;;;;23.57;17.37;;;;;;;;;;5050505;28;20536;-73
2023/01/22 00:34:07;;;;;;;21.67;15.60;;;;;;;;;;5050748;28;20453;-72
2023/01/22 00:36:34;;;;;;;21.00;15.83;;;;;;;;;;5050884;28;20450;-74
2023/01/22 00:39:01;;;;;;;21.07;16.13;;;;;;;;;;5050982;28;20470;-74
2023/01/22 00:41:28;;;;;;;22.20;16.03;;;;;;;;;;5050602;28;20485;-73
2023/01/22 00:43:55;;;;;;;25.40;15.57;;;;;;;;;;5050291;28;20453;-74
2023/01/22 00:46:22;;;;;;;20.43;15.10;;;;;;;;;;5049596;28;20489;-74
2023/01/22 00:48:49;;;;;;;22.40;16.47;;;;;;;;;;5055432;28;20473;-74
2023/01/22 00:51:18;;;;;;;23.73;16.40;;;;;;;;;;5050519;28;20438;-73
2023/01/22 00:53:45;;;;;;;21.87;15.67;;;;;;;;;;5058888;28;20444;-74
2023/01/22 00:56:13;;;;;;;20.37;15.40;;;;;;;;;;5059233;28;20437;-73
2023/01/22 00:58:40;;;;;;;20.93;15.23;;;;;;;;;;5059055;28;20456;-72
2023/01/22 01:01:08;;;;;;;18.83;14.67;;;;;;;;;;5060092;28;20507;-73
2023/01/22 01:03:36;;;;;;;19.73;14.60;;;;;;;;;;5050244;28;20449;-72
2023/01/22 01:06:05;;;;;;;21.83;16.57;;;;;;;;;;5060625;28;20559;-74
2023/01/22 01:08:34;;;;;;;22.40;16.53;;;;;;;;;;5070192;28;20437;-73
2023/01/22 01:11:02;;;;;;;19.50;15.07;;;;;;;;;;5070103;28;20510;-75
2023/01/22 01:13:31;;;;;;;19.10;14.80;;;;;;;;;;5070111;28;20452;-75
2023/01/22 01:16:00;;;;;;;20.97;14.33;;;;;;;;;;5070303;28;20959;-73
2023/01/22 01:18:27;;;;;;;21.40;15.33;;;;;;;;;;5070274;28;20448;-74
2023/01/22 01:20:54;;;;;;;23.00;16.23;;;;;;;;;;5070365;28;20452;-73
2023/01/22 01:23:21;;;;;;;25.40;15.50;;;;;;;;;;5069819;28;20498;-73
2023/01/22 01:25:50;;;;;;;20.20;15.00;;;;;;;;;;5070008;28;20477;-74
2023/01/22 01:28:17;;;;;;;21.63;15.93;;;;;;;;;;5069797;28;20932;-75
2023/01/22 01:30:44;;;;;;;20.07;14.93;;;;;;;;;;5069916;28;20468;-76
2023/01/22 01:33:11;;;;;;;22.83;16.20;;;;;;;;;;5069776;28;20448;-73
2023/01/22 01:35:38;;;;;;;19.03;15.00;;;;;;;;;;5069957;28;20828;-72
2023/01/22 01:38:05;;;;;;;19.60;14.97;;;;;;;;;;5069793;28;20814;-73
2023/01/22 01:40:34;;;;;;;23.23;16.30;;;;;;;;;;5072937;28;21005;-74
2023/01/22 01:43:02;;;;;;;21.37;15.87;;;;;;;;;;5075191;28;20436;-74
2023/01/22 01:45:30;;;;;;;20.33;16.30;;;;;;;;;;5071259;28;20481;-73
2023/01/22 01:48:02;;;;;;;20.97;15.87;;;;;;;;;;5070648;28;20467;-73
2023/01/22 01:50:29;;;;;;;19.17;14.30;;;;;;;;;;5070113;28;20465;-72
2023/01/22 01:52:57;;;;;;;21.63;16.37;;;;;;;;;;5070314;28;20441;-74
2023/01/22 01:55:27;;;;;;;19.23;14.23;;;;;;;;;;5070003;28;20444;-73
2023/01/22 01:57:54;;;;;;;19.43;15.47;;;;;;;;;;5075353;28;20466;-74
2023/01/22 02:00:23;;;;;;;20.00;15.43;;;;;;;;;;5075557;28;20918;-73
2023/01/22 02:02:50;;;;;;;20.50;15.43;;;;;;;;;;5076381;28;20447;-73
2023/01/22 02:05:19;;;;;;;19.83;15.87;;;;;;;;;;5074909;28;20487;-73
2023/01/22 02:07:46;;;;;;;23.00;17.67;;;;;;;;;;5073744;28;20471;-74
2023/01/22 02:10:13;;;;;;;20.97;15.10;;;;;;;;;;5073642;28;20464;-74
2023/01/22 02:12:40;;;;;;;19.37;15.30;;;;;;;;;;5073124;28;20476;-72
2023/01/22 02:15:09;;;;;;;20.83;15.70;;;;;;;;;;5068973;28;20441;-73
2023/01/22 02:17:37;;;;;;;20.13;14.70;;;;;;;;;;5053056;28;20850;-72
2023/01/22 02:20:04;;;;;;;19.37;15.30;;;;;;;;;;5053444;28;20453;-73
2023/01/22 02:22:33;;;;;;;21.00;15.77;;;;;;;;;;5053355;28;20491;-74
2023/01/22 02:25:01;;;;;;;19.23;15.43;;;;;;;;;;5053156;28;20481;-73
2023/01/22 02:27:28;;;;;;;17.90;14.40;;;;;;;;;;5053191;28;20437;-74
2023/01/22 02:29:55;;;;;;;18.87;15.00;;;;;;;;;;5053290;28;20473;-74
2023/01/22 02:32:22;;;;;;;22.87;15.23;;;;;;;;;;5052259;28;20798;-73
2023/01/22 02:34:49;;;;;;;19.03;14.27;;;;;;;;;;5051065;28;20445;-73
2023/01/22 02:37:16;;;;;;;21.07;16.00;;;;;;;;;;5054158;28;20449;-73
2023/01/22 02:39:45;;;;;;;20.13;15.07;;;;;;;;;;5054350;28;20473;-72
2023/01/22 02:42:12;;;;;;;18.90;15.40;;;;;;;;;;5052964;28;21090;-74
2023/01/22 02:44:39;;;;;;;19.90;15.60;;;;;;;;;;5052473;28;20426;-74
2023/01/22 02:47:06;;;;;;;21.37;15.03;;;;;;;;;;5053050;28;20482;-74
2023/01/22 02:49:33;;;;;;;19.27;14.93;;;;;;;;;;5052787;28;20496;-74
2023/01/22 02:52:00;;;;;;;19.40;13.77;;;;;;;;;;5054200;28;20445;-74
2023/01/22 02:54:27;;;;;;;17.37;13.90;;;;;;;;;;5054416;28;20445;-73
2023/01/22 02:56:56;;;;;;;25.03;19.83;;;;;;;;;;5053904;28;20449;-73
2023/01/22 02:59:23;;;;;;;18.50;15.80;;;;;;;;;;5053517;28;20515;-75
2023/01/22 03:01:51;;;;;;;19.73;15.73;;;;;;;;;;5054739;28;20449;-72
2023/01/22 03:04:18;;;;;;;21.50;15.40;;;;;;;;;;5054330;28;20446;-74
2023/01/22 03:06:46;;;;;;;18.33;14.83;;;;;;;;;;5053894;28;20481;-74
2023/01/22 03:09:14;;;;;;;18.83;15.60;;;;;;;;;;5051750;28;20461;-73
2023/01/22 03:11:42;;;;;;;19.57;15.37;;;;;;;;;;5053259;28;20445;-73
2023/01/22 03:22:25;;;;;;;17.77;15.30;;;;;;;;;;5052019;28;20468;-73
2023/01/22 03:24:52;;;;;;;19.40;14.90;;;;;;;;;;5052107;28;20461;-74
2023/01/22 03:27:20;;;;;;;21.87;17.00;;;;;;;;;;5056769;28;20477;-74
2023/01/22 03:29:48;;;;;;;19.90;15.97;;;;;;;;;;5058356;28;20873;-75
2023/01/22 03:32:15;;;;;;;19.33;15.57;;;;;;;;;;5058898;28;20941;-73
2023/01/22 03:34:43;;;;;;;19.90;16.23;;;;;;;;;;5058821;28;20499;-73
2023/01/22 03:37:11;;;;;;;16.33;13.77;;;;;;;;;;5058827;28;20503;-74
2023/01/22 03:39:39;;;;;;;20.70;16.50;;;;;;;;;;5051716;28;20493;-73
2023/01/22 03:42:06;;;;;;;18.37;14.03;;;;;;;;;;5051651;28;20540;-74
2023/01/22 03:44:33;;;;;;;19.00;15.33;;;;;;;;;;5051425;28;20472;-73
2023/01/22 03:47:02;;;;;;;19.60;15.03;;;;;;;;;;5051550;28;20862;-74
2023/01/22 03:49:29;;;;;;;22.93;15.60;;;;;;;;;;5051187;28;21000;-73
2023/01/22 03:51:56;;;;;;;20.80;16.87;;;;;;;;;;5051392;28;20452;-73
2023/01/22 03:54:23;;;;;;;17.53;15.37;;;;;;;;;;5051048;28;20450;-73
2023/01/22 03:56:50;;;;;;;17.50;14.83;;;;;;;;;;5050303;28;20964;-74
2023/01/22 03:59:17;;;;;;;20.53;16.67;;;;;;;;;;5051349;28;20466;-74
2023/01/22 04:01:44;;;;;;;20.00;14.70;;;;;;;;;;5051286;28;20433;-74
2023/01/22 04:04:13;;;;;;;18.47;14.90;;;;;;;;;;5051297;28;20451;-73
2023/01/22 04:06:40;;;;;;;23.60;17.03;;;;;;;;;;5051353;28;20481;-73
2023/01/22 04:09:07;;;;;;;17.90;15.30;;;;;;;;;;5051402;28;20704;-74
2023/01/22 04:11:34;;;;;;;19.47;15.47;;;;;;;;;;5051166;28;20456;-74
2023/01/22 04:14:01;;;;;;;19.87;15.40;;;;;;;;;;5050898;28;20452;-74
2023/01/22 04:16:28;;;;;;;21.00;16.47;;;;;;;;;;5065940;28;20453;-74
2023/01/22 04:18:55;;;;;;;20.10;16.00;;;;;;;;;;5071158;28;20492;-73
2023/01/22 04:21:23;;;;;;;22.63;16.57;;;;;;;;;;5070833;28;20437;-74
2023/01/22 04:23:50;;;;;;;21.50;16.30;;;;;;;;;;5070709;28;20448;-73
2023/01/22 04:26:17;;;;;;;19.93;15.33;;;;;;;;;;5070606;28;20503;-72
2023/01/22 04:28:44;;;;;;;19.77;15.90;;;;;;;;;;5070569;28;20464;-73
2023/01/22 04:31:11;;;;;;;20.57;15.17;;;;;;;;;;5070787;28;20456;-73
2023/01/22 04:33:38;;;;;;;21.33;15.57;;;;;;;;;;5073134;28;20941;-73
2023/01/22 04:36:05;;;;;;;23.17;17.07;;;;;;;;;;5074864;28;20444;-73
2023/01/22 04:38:34;;;;;;;18.47;14.50;;;;;;;;;;5073325;28;20455;-74
2023/01/22 04:41:01;;;;;;;20.80;16.27;;;;;;;;;;5075309;28;20441;-74
2023/01/22 04:43:28;;;;;;;21.03;16.70;;;;;;;;;;5074324;28;20447;-73
2023/01/22 04:45:55;;;;;;;20.40;16.33;;;;;;;;;;5074525;28;20485;-74
2023/01/22 04:48:22;;;;;;;21.97;16.27;;;;;;;;;;5074008;28;20956;-74
2023/01/22 04:50:49;;;;;;;21.73;16.63;;;;;;;;;;5075190;28;20444;-73
2023/01/22 04:53:16;;;;;;;18.53;14.87;;;;;;;;;;5075008;28;20444;-73
2023/01/22 04:55:44;;;;;;;20.30;16.40;;;;;;;;;;5074429;28;20514;-72
2023/01/22 04:58:11;;;;;;;21.00;16.30;;;;;;;;;;5074448;28;20498;-73
2023/01/22 05:00:38;;;;;;;19.27;15.80;;;;;;;;;;5072211;28;20469;-73
2023/01/22 05:03:05;;;;;;;18.20;15.50;;;;;;;;;;5070448;28;20963;-72
2023/01/22 05:05:33;;;;;;;19.73;15.03;;;;;;;;;;5070460;28;20475;-74
2023/01/22 05:08:01;;;;;;;19.97;15.47;;;;;;;;;;5070201;28;20440;-73
2023/01/22 05:10:28;;;;;;;19.03;15.90;;;;;;;;;;5070001;28;20518;-73
2023/01/22 05:12:56;;;;;;;22.43;16.80;;;;;;;;;;5070282;28;20444;-72
2023/01/22 05:15:24;;;;;;;19.63;16.00;;;;;;;;;;5063813;28;20465;-74
2023/01/22 05:17:51;;;;;;;21.40;16.93;;;;;;;;;;5049923;28;20449;-73
2023/01/22 05:20:18;;;;;;;21.77;15.70;;;;;;;;;;5049978;28;20485;-74
2023/01/22 05:22:45;;;;;;;19.37;15.17;;;;;;;;;;5049917;28;20457;-74
2023/01/22 05:25:12;;;;;;;20.70;16.83;;;;;;;;;;5049960;28;20857;-74
2023/01/22 05:27:39;;;;;;;21.77;16.57;;;;;;;;;;5050077;28;20859;-73
2023/01/22 05:30:09;;;;;;;21.33;15.97;;;;;;;;;;5050114;28;20462;-74
2023/01/22 05:32:36;;;;;;;18.80;15.53;;;;;;;;;;5049093;28;20944;-73
2023/01/22 05:35:03;;;;;;;19.67;15.50;;;;;;;;;;5050006;28;20456;-73
2023/01/22 05:37:31;;;;;;;20.93;15.17;;;;;;;;;;5049540;28;20441;-73
2023/01/22 05:39:58;;;;;;;18.87;15.80;;;;;;;;;;5049608;28;20470;-73
2023/01/22 05:42:25;;;;;;;22.77;16.83;;;;;;;;;;5050161;28;20445;-73
2023/01/22 05:44:52;;;;;;;19.33;15.43;;;;;;;;;;5049770;28;20438;-74
2023/01/22 05:47:20;;;;;;;19.53;16.33;;;;;;;;;;5049652;28;21114;-73
2023/01/22 05:49:47;;;;;;;20.20;15.83;;;;;;;;;;5049536;28;20462;-73
2023/01/22 05:52:15;;;;;;;19.70;16.37;;;;;;;;;;5049826;28;20445;-75
2023/01/22 05:54:42;;;;;;;18.03;15.20;;;;;;;;;;5050192;28;20549;-72
2023/01/22 05:57:09;;;;;;;22.83;16.10;;;;;;;;;;5049764;28;20991;-74
2023/01/22 05:59:36;;;;;;;17.70;14.33;;;;;;;;;;5049528;28;20465;-74
2023/01/22 06:02:03;;;;;;;22.10;16.20;;;;;;;;;;5049482;28;20449;-76
2023/01/22 06:04:31;;;;;;;19.40;16.10;;;;;;;;;;5049453;28;20891;-75
2023/01/22 06:06:58;;;;;;;18.93;15.77;;;;;;;;;;5049228;28;20489;-73
2023/01/22 06:09:25;;;;;;;21.57;17.00;;;;;;;;;;5050544;28;20516;-75
2023/01/22 06:11:52;;;;;;;19.53;16.03;;;;;;;;;;5050164;28;20445;-74
2023/01/22 06:14:20;;;;;;;23.10;17.10;;;;;;;;;;5049407;28;20449;-73
2023/01/22 06:16:47;;;;;;;24.40;16.67;;;;;;;;;;5067260;28;20441;-74
2023/01/22 06:19:14;;;;;;;21.03;15.80;;;;;;;;;;5069266;28;20470;-73
2023/01/22 06:21:42;;;;;;;19.67;16.03;;;;;;;;;;5069461;28;20448;-74
2023/01/22 06:24:09;;;;;;;23.67;16.90;;;;;;;;;;5068999;28;20478;-73
2023/01/22 06:26:36;;;;;;;21.47;16.40;;;;;;;;;;5069297;28;20481;-74
2023/01/22 06:29:04;;;;;;;22.00;16.73;;;;;;;;;;5069288;28;20992;-73
2023/01/22 06:31:31;;;;;;;20.60;15.63;;;;;;;;;;5068905;28;20451;-74
2023/01/22 06:33:58;;;;;;;24.90;18.40;;;;;;;;;;5068784;28;20459;-74
2023/01/22 06:36:25;;;;;;;23.43;17.70;;;;;;;;;;5069524;28;20488;-74
2023/01/22 06:38:54;;;;;;;20.30;15.97;;;;;;;;;;5069064;28;20962;-73
2023/01/22 06:41:21;;;;;;;24.20;17.50;;;;;;;;;;5069608;28;20522;-74
2023/01/22 06:43:48;;;;;;;23.67;17.53;;;;;;;;;;5070390;28;20449;-74
2023/01/22 06:46:15;;;;;;;23.00;17.53;;;;;;;;;;5072711;28;20829;-73
2023/01/22 06:48:42;;;;;;;26.50;17.57;;;;;;;;;;5073403;28;20449;-74
2023/01/22 06:51:09;;;;;;;20.90;17.00;;;;;;;;;;5073244;28;20440;-74
2023/01/22 06:53:36;;;;;;;21.90;17.20;;;;;;;;;;5072801;28;20455;-74
2023/01/22 06:56:05;;;;;;;24.47;17.53;;;;;;;;;;5072856;28;20441;-74
2023/01/22 06:58:32;;;;;;;22.63;16.63;;;;;;;;;;5072975;28;20444;-73
2023/01/22 07:01:00;;;;;;;25.00;18.37;;;;;;;;;;5071972;28;20441;-74
2023/01/22 07:03:27;;;;;;;24.20;18.17;;;;;;;;;;5072495;28;20452;-75
2023/01/22 07:05:57;;;;;;;22.90;17.90;;;;;;;;;;5072407;28;20455;-74
2023/01/22 07:08:24;;;;;;;26.67;18.57;;;;;;;;;;5072237;28;20572;-73
2023/01/22 07:10:52;;;;;;;23.93;18.37;;;;;;;;;;5072527;28;20445;-75
2023/01/22 07:13:20;;;;;;;22.00;17.43;;;;;;;;;;5071842;28;20825;-74
2023/01/22 07:15:47;;;;;;;26.47;19.20;;;;;;;;;;5062460;28;20976;-73
2023/01/22 07:18:15;;;;;;;25.07;17.57;;;;;;;;;;5052369;28;20462;-73
2023/01/22 07:20:43;;;;;;;25.17;18.20;;;;;;;;;;5052141;28;20508;-75
2023/01/22 07:23:10;;;;;;;25.53;17.70;;;;;;;;;;5051839;28;20441;-74
2023/01/22 07:25:38;;;;;;;23.17;17.67;;;;;;;;;;5053356;28;20449;-73
2023/01/22 07:28:06;;;;;;;23.70;18.10;;;;;;;;;;5061102;28;20486;-73
2023/01/22 07:30:34;;;;;;;35.07;21.90;;;;;;;;;;5064271;28;20474;-73
2023/01/22 07:33:02;;;;;;;23.43;17.40;;;;;;;;;;5073057;28;20437;-74
2023/01/22 07:35:30;;;;;;;24.37;18.53;;;;;;;;;;5077808;28;20440;-74
2023/01/22 07:37:57;;;;;;;24.57;17.47;;;;;;;;;;5092062;28;20444;-75
2023/01/22 07:40:25;;;;;;;24.33;17.20;;;;;;;;;;5084703;28;20575;-73
2023/01/22 07:42:52;;;;;;;27.60;18.63;;;;;;;;;;5077890;28;20677;-73
2023/01/22 07:45:19;;;;;;;28.17;18.60;;;;;;;;;;5077937;28;20436;-74
2023/01/22 07:47:53;;;;;;;31.23;20.27;;;;;;;;;;5083570;28;20485;-74
2023/01/22 07:50:20;;;;;;;25.93;18.90;;;;;;;;;;5088918;28;20461;-73
2023/01/22 07:52:47;;;;;;;31.57;19.40;;;;;;;;;;5095257;28;20439;-74
2023/01/22 07:55:14;;;;;;;30.43;20.37;;;;;;;;;;5086578;28;20449;-75
2023/01/22 07:57:41;;;;;;;27.80;19.30;;;;;;;;;;5080494;28;20441;-74
2023/01/22 08:00:09;;;;;;;27.43;19.17;;;;;;;;;;5087334;28;20471;-75
2023/01/22 08:02:37;;;;;;;23.53;16.80;;;;;;;;;;5073585;28;20925;-75
2023/01/22 08:05:06;;;;;;;23.73;18.43;;;;;;;;;;5086618;28;20436;-74
2023/01/22 08:07:33;;;;;;;25.50;19.10;;;;;;;;;;5082520;28;20985;-73
2023/01/22 08:10:00;;;;;;;27.20;19.33;;;;;;;;;;5071612;28;20466;-74
2023/01/22 08:12:27;;;;;;;24.43;19.13;;;;;;;;;;5071457;28;20454;-74
2023/01/22 08:14:54;;;;;;;26.30;18.67;;;;;;;;;;5070996;28;20965;-75
2023/01/22 08:17:21;;;;;;;29.00;19.13;;;;;;;;;;5071613;28;20443;-74
2023/01/22 08:19:48;;;;;;;26.93;18.70;;;;;;;;;;5070995;28;20471;-73
2023/01/22 08:22:16;;;;;;;24.23;17.50;;;;;;;;;;5071121;28;20449;-74
2023/01/22 08:24:43;;;;;;;22.07;17.00;;;;;;;;;;5070581;28;20921;-74
2023/01/22 08:27:10;;;;;;;26.87;18.57;;;;;;;;;;5071219;28;20528;-75
2023/01/22 08:29:37;;;;;;;24.83;17.10;;;;;;;;;;5070762;28;20897;-74
2023/01/22 08:32:05;;;;;;;25.57;17.83;;;;;;;;;;5070511;28;20445;-75
2023/01/22 08:34:32;;;;;;;26.80;18.63;;;;;;;;;;5070276;28;20533;-75
2023/01/22 08:36:59;;;;;;;22.60;17.90;;;;;;;;;;5071167;28;20464;-73
2023/01/22 08:39:28;;;;;;;23.07;18.60;;;;;;;;;;5070345;28;21009;-75
2023/01/22 08:41:56;;;;;;;24.00;16.87;;;;;;;;;;5070914;28;20904;-74
2023/01/22 08:44:23;;;;;;;23.67;17.87;;;;;;;;;;5070230;28;20552;-73
2023/01/22 08:46:50;;;;;;;26.73;18.30;;;;;;;;;;5070812;28;20579;-74
2023/01/22 08:49:20;;;;;;;24.27;18.33;;;;;;;;;;5070210;28;20863;-74
2023/01/22 08:51:49;;;;;;;26.37;17.70;;;;;;;;;;5070591;28;20812;-75
2023/01/22 08:54:16;;;;;;;25.53;19.43;;;;;;;;;;5070276;28;20813;-72
2023/01/22 08:56:44;;;;;;;26.53;19.10;;;;;;;;;;5070541;28;20451;-74
2023/01/22 08:59:11;;;;;;;23.57;16.70;;;;;;;;;;5070265;28;20468;-74
2023/01/22 09:01:38;;;;;;;22.37;16.40;;;;;;;;;;5070172;28;20437;-74
2023/01/22 09:04:06;;;;;;;124.37;70.20;;;;;;;;;;5072127;28;20446;-74
2023/01/22 09:06:33;;;;;;;54.00;35.27;;;;;;;;;;5073735;28;20488;-73
2023/01/22 09:09:00;;;;;;;25.40;18.30;;;;;;;;;;5070984;28;20489;-75
2023/01/22 09:11:28;;;;;;;27.93;18.60;;;;;;;;;;5070255;28;20469;-74
2023/01/22 09:13:56;;;;;;;27.83;18.67;;;;;;;;;;5069989;28;20455;-73
2023/01/22 09:16:23;;;;;;;26.63;18.87;;;;;;;;;;5055682;28;20449;-75
2023/01/22 09:18:50;;;;;;;26.73;18.23;;;;;;;;;;5050377;28;20466;-74
2023/01/22 09:21:17;;;;;;;23.33;17.40;;;;;;;;;;5051206;28;20858;-74
2023/01/22 09:23:44;;;;;;;29.30;19.20;;;;;;;;;;5052603;28;20816;-74
2023/01/22 09:26:11;;;;;;;22.33;16.67;;;;;;;;;;5050954;28;20941;-74
2023/01/22 09:28:38;;;;;;;23.50;17.53;;;;;;;;;;5050247;28;20481;-75
2023/01/22 09:31:07;;;;;;;22.57;15.20;;;;;;;;;;5050144;28;20451;-74
2023/01/22 09:33:34;;;;;;;22.83;16.70;;;;;;;;;;5065744;28;20591;-74
2023/01/22 09:36:08;;;;;;;28.37;18.33;;;;;;;;;;5064134;28;20451;-75
2023/01/22 09:38:35;;;;;;;24.40;17.50;;;;;;;;;;5052643;28;20438;-73
2023/01/22 09:41:05;;;;;;;26.27;17.37;;;;;;;;;;5051383;28;20452;-75
2023/01/22 09:43:34;;;;;;;23.70;17.50;;;;;;;;;;5050082;28;20901;-74
2023/01/22 09:46:02;;;;;;;21.70;15.53;;;;;;;;;;5050524;28;20459;-74
2023/01/22 09:48:33;;;;;;;26.30;17.00;;;;;;;;;;5050198;28;20480;-73
2023/01/22 09:51:00;;;;;;;25.53;17.77;;;;;;;;;;5055755;28;20509;-74
2023/01/22 09:53:29;;;;;;;23.53;16.63;;;;;;;;;;5063439;28;20437;-74
2023/01/22 09:55:56;;;;;;;24.33;16.43;;;;;;;;;;5051981;28;20453;-73
2023/01/22 09:58:24;;;;;;;24.87;17.40;;;;;;;;;;5050106;28;20525;-74
2023/01/22 10:00:52;;;;;;;30.30;18.40;;;;;;;;;;5050324;28;20481;-75
2023/01/22 10:03:22;;;;;;;22.87;16.77;;;;;;;;;;5049743;28;20446;-74
2023/01/22 10:05:53;;;;;;;25.97;17.57;;;;;;;;;;5050310;28;20477;-74
2023/01/22 10:08:21;;;;;;;25.07;16.93;;;;;;;;;;5049430;28;20510;-74
2023/01/22 10:10:50;;;;;;;22.37;16.47;;;;;;;;;;5049445;28;20466;-75
2023/01/22 10:13:18;;;;;;;25.53;18.33;;;;;;;;;;5048798;28;20454;-74
2023/01/22 10:15:46;;;;;;;22.33;17.30;;;;;;;;;;5059025;28;20449;-74
2023/01/22 10:18:23;;;;;;;24.13;17.33;;;;;;;;;;5071664;28;20443;-73
2023/01/22 10:20:51;;;;;;;20.73;16.43;;;;;;;;;;5074186;28;20447;-74
2023/01/22 10:23:19;;;;;;;25.13;17.77;;;;;;;;;;5075008;28;20444;-74
2023/01/22 10:25:47;;;;;;;21.83;16.13;;;;;;;;;;5074395;28;20444;-74
2023/01/22 10:28:15;;;;;;;20.30;15.97;;;;;;;;;;5074325;28;20486;-74
2023/01/22 10:30:46;;;;;;;21.17;15.10;;;;;;;;;;5073980;28;20473;-74
2023/01/22 10:33:16;;;;;;;23.10;15.00;;;;;;;;;;5073849;28;20454;-74
2023/01/22 10:35:46;;;;;;;19.00;14.37;;;;;;;;;;5076954;28;20796;-74
2023/01/22 10:38:25;;;;;;;19.97;15.90;;;;;;;;;;5076320;28;20954;-74
2023/01/22 10:40:56;;;;;;;19.40;15.33;;;;;;;;;;5078567;28;20450;-73
2023/01/22 10:43:26;;;;;;;22.27;16.30;;;;;;;;;;5076320;28;20446;-76
2023/01/22 10:45:53;;;;;;;22.60;15.23;;;;;;;;;;5073298;28;20450;-73
2023/01/22 10:48:21;;;;;;;22.20;16.07;;;;;;;;;;5073038;28;20522;-74
2023/01/22 10:50:59;;;;;;;20.13;15.27;;;;;;;;;;5073370;28;20466;-73
2023/01/22 10:53:30;;;;;;;21.27;16.30;;;;;;;;;;5073062;28;20555;-74
2023/01/22 10:55:59;;;;;;;21.90;16.30;;;;;;;;;;5073260;28;20449;-74
2023/01/22 10:58:30;;;;;;;20.10;15.33;;;;;;;;;;5072795;28;20533;-73
2023/01/22 11:00:59;;;;;;;20.70;15.67;;;;;;;;;;5072954;28;20458;-74
2023/01/22 11:03:30;;;;;;;20.70;16.30;;;;;;;;;;5072843;28;20938;-75
2023/01/22 11:05:59;;;;;;;19.60;16.07;;;;;;;;;;5072773;28;21077;-73
2023/01/22 11:08:29;;;;;;;22.57;15.77;;;;;;;;;;5072878;28;21000;-74
2023/01/22 11:10:59;;;;;;;22.97;17.33;;;;;;;;;;5072828;28;20433;-74
2023/01/22 11:13:29;;;;;;;20.90;15.83;;;;;;;;;;5067025;28;21151;-74
2023/01/22 11:16:00;;;;;;;21.40;16.60;;;;;;;;;;5059414;28;20446;-75
2023/01/22 11:18:29;;;;;;;20.93;16.00;;;;;;;;;;5072454;28;20434;-76
2023/01/22 11:20:57;;;;;;;20.20;15.70;;;;;;;;;;5072405;28;20523;-74
2023/01/22 11:23:27;;;;;;;22.00;17.00;;;;;;;;;;5071943;28;20519;-75
2023/01/22 11:25:57;;;;;;;19.93;15.43;;;;;;;;;;5069490;28;20530;-75
2023/01/22 11:28:30;;;;;;;23.57;16.53;;;;;;;;;;5072415;28;20478;-74
2023/01/22 11:31:03;;;;;;;18.80;14.17;;;;;;;;;;5072731;28;20442;-75
2023/01/22 11:33:37;;;;;;;18.97;14.00;;;;;;;;;;5072933;28;20452;-75
2023/01/22 11:36:08;;;;;;;19.57;15.03;;;;;;;;;;5071791;28;20454;-74
2023/01/22 11:38:38;;;;;;;17.87;13.80;;;;;;;;;;5072669;28;20840;-74
2023/01/22 11:41:16;;;;;;;22.53;16.90;;;;;;;;;;5072950;28;20822;-74
2023/01/22 11:43:54;;;;;;;23.10;15.60;;;;;;;;;;5071584;28;20445;-75
2023/01/22 11:46:27;;;;;;;20.60;15.43;;;;;;;;;;5071542;28;20442;-75
2023/01/22 11:49:01;;;;;;;16.23;13.70;;;;;;;;;;5071867;28;20477;-75
2023/01/22 11:51:32;;;;;;;16.67;13.60;;;;;;;;;;5070435;28;20990;-75
2023/01/22 11:54:05;;;;;;;20.67;14.13;;;;;;;;;;5068883;28;20449;-75
2023/01/22 11:56:47;;;;;;;18.27;14.57;;;;;;;;;;5071135;28;20451;-75
2023/01/22 11:59:21;;;;;;;18.47;15.33;;;;;;;;;;5072041;28;20474;-75
2023/01/22 12:02:01;;;;;;;19.83;14.63;;;;;;;;;;5071791;28;20534;-74
2023/01/22 12:04:36;;;;;;;17.80;14.23;;;;;;;;;;5072899;28;20482;-75
2023/01/22 12:07:18;;;;;;;20.90;15.57;;;;;;;;;;5073427;28;20444;-74
2023/01/22 12:09:53;;;;;;;20.57;14.90;;;;;;;;;;5070478;28;21025;-75
2023/01/22 12:12:27;;;;;;;19.33;15.23;;;;;;;;;;5070944;28;20461;-76
2023/01/22 12:15:00;;;;;;;18.00;13.70;;;;;;;;;;5068215;28;20934;-75
2023/01/22 12:17:33;;;;;;;18.37;13.60;;;;;;;;;;5070753;28;20446;-75
2023/01/22 12:20:19;;;;;;;20.00;13.97;;;;;;;;;;5070638;28;20462;-75
2023/01/22 12:22:50;;;;;;;21.20;14.80;;;;;;;;;;5073043;28;20530;-73
2023/01/22 12:25:20;;;;;;;16.10;13.57;;;;;;;;;;5070667;28;20452;-75
2023/01/22 12:27:49;;;;;;;17.40;14.27;;;;;;;;;;5070884;28;20812;-75
2023/01/22 12:30:20;;;;;;;15.90;13.10;;;;;;;;;;5068849;28;20546;-75
2023/01/22 12:32:50;;;;;;;18.37;13.60;;;;;;;;;;5070661;28;20448;-74
2023/01/22 12:35:18;;;;;;;17.53;15.50;;;;;;;;;;5070829;28;20757;-76
2023/01/22 12:37:47;;;;;;;19.97;14.43;;;;;;;;;;5055391;28;20455;-76
2023/01/22 12:40:32;;;;;;;18.43;14.13;;;;;;;;;;5073751;28;20461;-74
2023/01/22 12:43:01;;;;;;;18.03;14.10;;;;;;;;;;5071803;28;20441;-75
2023/01/22 12:45:36;;;;;;;16.57;13.87;;;;;;;;;;5069959;28;20435;-75
2023/01/22 12:48:06;;;;;;;17.80;14.27;;;;;;;;;;5069620;28;20882;-75
2023/01/22 12:50:33;;;;;;;17.37;13.03;;;;;;;;;;5070236;28;20814;-75
2023/01/22 12:53:01;;;;;;;16.70;13.37;;;;;;;;;;5068920;28;20438;-75
2023/01/22 12:55:33;;;;;;;16.30;14.07;;;;;;;;;;5069583;28;20439;-74
2023/01/22 12:58:01;;;;;;;18.33;14.97;;;;;;;;;;5067683;28;20868;-75
2023/01/22 13:00:34;;;;;;;16.83;13.53;;;;;;;;;;5068210;28;20467;-75
2023/01/22 13:03:02;;;;;;;15.07;13.47;;;;;;;;;;5068115;28;20475;-74
2023/01/22 13:05:40;;;;;;;14.57;13.03;;;;;;;;;;5069891;28;20448;-75
2023/01/22 13:08:08;;;;;;;14.30;12.63;;;;;;;;;;5069072;28;20448;-75
2023/01/22 13:10:36;;;;;;;14.90;12.43;;;;;;;;;;5066687;28;20998;-75
2023/01/22 13:13:14;;;;;;;17.97;13.10;;;;;;;;;;5070440;28;20529;-76
2023/01/22 13:15:42;;;;;;;16.60;13.47;;;;;;;;;;5071390;28;20496;-74
2023/01/22 13:18:18;;;;;;;17.77;13.83;;;;;;;;;;5070430;28;20451;-75
2023/01/22 13:20:48;;;;;;;14.50;11.60;;;;;;;;;;5070005;28;20466;-75
2023/01/22 13:23:16;;;;;;;15.03;13.40;;;;;;;;;;5070046;28;20442;-74
2023/01/22 13:25:43;;;;;;;15.57;11.27;;;;;;;;;;5066717;28;20436;-74
2023/01/22 13:28:11;;;;;;;12.90;11.47;;;;;;;;;;5071421;28;20525;-75
2023/01/22 13:30:38;;;;;;;13.90;11.27;;;;;;;;;;5074393;28;20463;-75
2023/01/22 13:33:11;;;;;;;15.43;11.70;;;;;;;;;;5074599;28;20450;-74
2023/01/22 13:35:41;;;;;;;12.63;10.57;;;;;;;;;;5071758;28;20446;-74
2023/01/22 13:38:16;;;;;;;14.03;11.40;;;;;;;;;;5070338;28;20440;-76
2023/01/22 13:40:43;;;;;;;12.20;10.90;;;;;;;;;;5070867;28;20731;-75
2023/01/22 13:43:14;;;;;;;11.70;10.57;;;;;;;;;;5069856;28;20451;-76
2023/01/22 13:45:41;;;;;;;12.17;10.63;;;;;;;;;;5070317;28;20843;-76
2023/01/22 13:48:14;;;;;;;13.83;10.47;;;;;;;;;;5068452;28;20942;-75
2023/01/22 13:50:45;;;;;;;13.17;11.13;;;;;;;;;;5070087;28;20486;-76
2023/01/22 13:53:18;;;;;;;13.30;10.90;;;;;;;;;;5071786;28;20428;-75
2023/01/22 13:55:45;;;;;;;12.43;11.13;;;;;;;;;;5073192;28;20446;-75
2023/01/22 13:58:29;;;;;;;14.23;11.40;;;;;;;;;;5069702;28;20455;-75
2023/01/22 14:00:56;;;;;;;13.67;10.97;;;;;;;;;;5057007;28;20541;-76
2023/01/22 14:03:26;;;;;;;11.67;10.47;;;;;;;;;;5062737;28;20449;-77
2023/01/22 14:06:02;;;;;;;10.30;9.30;;;;;;;;;;5073470;28;20552;-76
2023/01/22 14:08:29;;;;;;;12.70;10.70;;;;;;;;;;5073756;28;20497;-76
2023/01/22 14:10:57;;;;;;;11.87;10.60;;;;;;;;;;5073849;28;20450;-75
2023/01/22 14:13:24;;;;;;;12.47;10.83;;;;;;;;;;5073471;28;20825;-76
2023/01/22 14:15:54;;;;;;;11.60;10.30;;;;;;;;;;5063542;28;20503;-76
2023/01/22 14:18:21;;;;;;;11.90;10.80;;;;;;;;;;5070151;28;20453;-75
2023/01/22 14:20:50;;;;;;;12.03;10.70;;;;;;;;;;5070395;28;20461;-75
2023/01/22 14:23:17;;;;;;;11.57;10.47;;;;;;;;;;5084964;28;20430;-74
2023/01/22 14:25:45;;;;;;;13.90;11.00;;;;;;;;;;5097406;28;20470;-74
2023/01/22 14:28:12;;;;;;;12.40;10.90;;;;;;;;;;5097294;28;20419;-75
2023/01/22 14:30:39;;;;;;;12.57;10.90;;;;;;;;;;5097804;28;20477;-73
2023/01/22 14:33:06;;;;;;;12.00;10.17;;;;;;;;;;5074741;28;20925;-75